Time;durP1;ratioP1;P1;durP2;ratioP2;P2;SDS_P1;SDS_P2;PMS_P1;PMS_P2;Temp;Humidity;BMP_temperature;BMP_pressure;BME280_temperature;BME280_humidity;BME280_pressure;Samples;Min_cycle;Max_cycle;Signal;HPM_P1;HPM_P2
2022/11/19 00:00:38;;;;;;;14.43;6.03;;;;;;;;;;5031042;28;20097;-69
2022/11/19 00:03:03;;;;;;;10.68;5.43;;;;;;;;;;5029906;28;20056;-69
2022/11/19 00:05:29;;;;;;;12.68;5.68;;;;;;;;;;5029433;28;20017;-68
2022/11/19 00:07:54;;;;;;;20.23;6.30;;;;;;;;;;5032469;28;20087;-69
2022/11/19 00:10:19;;;;;;;12.10;5.32;;;;;;;;;;5032306;28;20090;-70
2022/11/19 00:12:53;;;;;;;12.88;5.75;;;;;;;;;;5033310;28;20026;-70
2022/11/19 00:15:18;;;;;;;10.30;5.57;;;;;;;;;;5034043;28;20021;-69
2022/11/19 00:17:43;;;;;;;9.75;5.65;;;;;;;;;;5031222;28;20430;-70
2022/11/19 00:20:09;;;;;;;10.68;5.50;;;;;;;;;;5031163;28;20072;-67
2022/11/19 00:22:34;;;;;;;17.05;6.10;;;;;;;;;;5031994;28;20013;-70
2022/11/19 00:24:59;;;;;;;12.48;6.30;;;;;;;;;;5032386;28;20025;-68
2022/11/19 00:27:25;;;;;;;13.02;6.38;;;;;;;;;;5032022;28;20036;-70
2022/11/19 00:29:50;;;;;;;13.05;5.57;;;;;;;;;;5033096;28;20029;-69
2022/11/19 00:32:15;;;;;;;12.05;5.60;;;;;;;;;;5031921;28;20075;-71
2022/11/19 00:34:40;;;;;;;11.75;6.05;;;;;;;;;;5032157;28;20660;-68
2022/11/19 00:37:06;;;;;;;13.93;6.13;;;;;;;;;;5030719;28;20379;-71
2022/11/19 00:39:31;;;;;;;12.02;6.05;;;;;;;;;;5025997;28;20037;-68
2022/11/19 00:41:56;;;;;;;11.60;5.30;;;;;;;;;;5030311;28;20017;-72
2022/11/19 00:44:21;;;;;;;10.77;5.53;;;;;;;;;;5031808;28;20029;-69
2022/11/19 00:46:46;;;;;;;12.52;5.88;;;;;;;;;;5031723;28;20041;-69
2022/11/19 00:49:12;;;;;;;11.73;5.18;;;;;;;;;;5031456;28;20102;-69
2022/11/19 00:51:37;;;;;;;11.05;5.90;;;;;;;;;;5031635;28;20076;-67
2022/11/19 00:54:02;;;;;;;14.93;7.00;;;;;;;;;;5032160;28;20025;-70
2022/11/19 00:56:27;;;;;;;15.23;6.70;;;;;;;;;;5030837;28;20045;-69
2022/11/19 00:58:54;;;;;;;14.98;6.07;;;;;;;;;;5031960;28;20026;-72
2022/11/19 01:01:21;;;;;;;10.57;5.65;;;;;;;;;;5041953;28;20558;-69
2022/11/19 01:03:46;;;;;;;16.48;5.80;;;;;;;;;;5031940;28;20053;-71
2022/11/19 01:06:12;;;;;;;10.05;5.53;;;;;;;;;;5031257;28;20056;-73
2022/11/19 01:08:38;;;;;;;21.83;6.03;;;;;;;;;;5031749;28;20021;-69
2022/11/19 01:11:08;;;;;;;10.70;5.22;;;;;;;;;;5031159;28;20025;-71
2022/11/19 01:13:33;;;;;;;10.27;5.18;;;;;;;;;;5029845;28;20025;-70
2022/11/19 01:15:59;;;;;;;13.73;6.20;;;;;;;;;;5031853;28;20032;-69
2022/11/19 01:18:24;;;;;;;12.68;5.50;;;;;;;;;;5030437;28;20021;-70
2022/11/19 01:20:50;;;;;;;18.10;7.57;;;;;;;;;;5030583;28;20074;-68
2022/11/19 01:23:15;;;;;;;15.18;6.13;;;;;;;;;;5031068;28;20034;-69
2022/11/19 01:25:40;;;;;;;13.27;5.85;;;;;;;;;;5030360;28;20017;-69
2022/11/19 01:28:06;;;;;;;12.52;5.22;;;;;;;;;;5029608;28;20037;-69
2022/11/19 01:30:31;;;;;;;13.35;7.13;;;;;;;;;;5031468;28;20041;-69
2022/11/19 01:32:56;;;;;;;12.98;5.25;;;;;;;;;;5031386;28;20033;-67
2022/11/19 01:35:22;;;;;;;10.95;6.03;;;;;;;;;;5030698;28;20496;-69
2022/11/19 01:37:47;;;;;;;13.75;6.00;;;;;;;;;;5030076;28;20029;-68
2022/11/19 01:40:13;;;;;;;10.85;5.68;;;;;;;;;;5030637;28;20036;-71
2022/11/19 01:42:52;;;;;;;15.25;6.57;;;;;;;;;;5026315;28;20070;-68
2022/11/19 01:45:23;;;;;;;11.82;6.32;;;;;;;;;;5030499;28;20128;-67
2022/11/19 01:47:49;;;;;;;13.45;5.80;;;;;;;;;;5029702;28;20028;-71
2022/11/19 01:50:14;;;;;;;11.50;5.88;;;;;;;;;;5030159;28;20025;-70
2022/11/19 01:52:39;;;;;;;11.05;5.35;;;;;;;;;;5028550;28;20427;-69
2022/11/19 01:55:06;;;;;;;12.65;6.25;;;;;;;;;;5030217;28;20063;-70
2022/11/19 01:57:32;;;;;;;12.45;6.65;;;;;;;;;;5029295;28;20379;-69
2022/11/19 01:59:57;;;;;;;15.98;6.80;;;;;;;;;;5030750;28;20528;-70
2022/11/19 02:02:22;;;;;;;18.60;6.85;;;;;;;;;;5030587;28;20041;-69
2022/11/19 02:04:50;;;;;;;11.85;5.85;;;;;;;;;;5030106;28;20103;-70
2022/11/19 02:07:16;;;;;;;16.83;6.80;;;;;;;;;;5032647;28;20068;-71
2022/11/19 02:09:41;;;;;;;12.77;6.80;;;;;;;;;;5029694;28;20057;-68
2022/11/19 02:12:13;;;;;;;11.13;6.10;;;;;;;;;;5029691;28;20111;-69
2022/11/19 02:14:50;;;;;;;22.55;7.50;;;;;;;;;;5029205;28;20172;-69
2022/11/19 02:17:24;;;;;;;12.10;5.55;;;;;;;;;;5029055;28;20021;-69
2022/11/19 02:19:55;;;;;;;14.68;6.93;;;;;;;;;;5027527;28;20104;-70
2022/11/19 02:22:49;;;;;;;12.60;6.30;;;;;;;;;;5029389;28;20020;-69
2022/11/19 02:25:23;;;;;;;13.45;6.50;;;;;;;;;;4992074;28;20030;-67
2022/11/19 02:27:58;;;;;;;14.65;6.70;;;;;;;;;;5016462;28;20104;-69
2022/11/19 02:30:23;;;;;;;15.73;6.45;;;;;;;;;;5028942;28;20025;-70
2022/11/19 02:32:57;;;;;;;21.02;7.28;;;;;;;;;;5029358;28;20074;-68
2022/11/19 02:35:31;;;;;;;13.93;7.30;;;;;;;;;;5029326;28;20029;-68
2022/11/19 02:37:59;;;;;;;16.67;7.32;;;;;;;;;;5026655;28;20148;-70
2022/11/19 02:40:29;;;;;;;12.77;6.45;;;;;;;;;;5027064;28;20022;-69
2022/11/19 02:42:57;;;;;;;15.98;6.65;;;;;;;;;;5025236;28;20529;-68
2022/11/19 02:45:30;;;;;;;14.57;7.03;;;;;;;;;;5029256;28;20037;-69
2022/11/19 02:47:58;;;;;;;14.55;6.43;;;;;;;;;;5037938;28;20056;-71
2022/11/19 02:50:26;;;;;;;31.27;8.18;;;;;;;;;;5046194;28;20025;-72
2022/11/19 02:52:52;;;;;;;14.73;8.10;;;;;;;;;;5031400;28;20025;-69
2022/11/19 02:55:18;;;;;;;22.08;7.90;;;;;;;;;;5029541;28;20026;-71
2022/11/19 02:57:49;;;;;;;14.95;6.97;;;;;;;;;;5028314;28;20109;-72
2022/11/19 03:05:54;;;;;;;12.13;6.40;;;;;;;;;;5028469;28;20098;-68
2022/11/19 03:08:20;;;;;;;19.02;7.32;;;;;;;;;;5026649;28;20025;-67
2022/11/19 03:10:54;;;;;;;13.98;6.57;;;;;;;;;;5025126;28;20066;-70
2022/11/19 03:18:58;;;;;;;15.52;7.05;;;;;;;;;;5028776;28;20518;-68
2022/11/19 03:21:27;;;;;;;12.82;6.45;;;;;;;;;;5027750;28;20091;-68
2022/11/19 03:23:52;;;;;;;;;;;;;;;;;;5029793;28;20017;-70
2022/11/19 03:26:28;;;;;;;17.33;6.97;;;;;;;;;;5028436;28;20274;-67
2022/11/19 03:28:55;;;;;;;16.90;7.43;;;;;;;;;;5028195;28;20049;-71
2022/11/19 03:31:21;;;;;;;14.38;6.30;;;;;;;;;;5028987;28;20021;-68
2022/11/19 03:33:48;;;;;;;16.48;7.45;;;;;;;;;;5029219;28;20112;-68
2022/11/19 03:36:17;;;;;;;12.75;6.68;;;;;;;;;;5027465;28;20017;-68
2022/11/19 03:38:44;;;;;;;12.65;6.85;;;;;;;;;;5026843;28;20025;-70
2022/11/19 03:41:11;;;;;;;12.45;6.65;;;;;;;;;;5032888;28;20050;-69
2022/11/19 03:43:37;;;;;;;14.15;6.80;;;;;;;;;;5031101;28;20017;-68
2022/11/19 03:46:03;;;;;;;10.32;5.05;;;;;;;;;;5034940;28;20064;-69
2022/11/19 03:48:29;;;;;;;20.35;8.32;;;;;;;;;;5034562;28;20033;-67
2022/11/19 03:51:18;;;;;;;22.70;6.53;;;;;;;;;;5034446;28;20065;-69
2022/11/19 03:53:43;;;;;;;15.82;7.45;;;;;;;;;;5031114;28;20033;-70
2022/11/19 03:56:10;;;;;;;14.45;7.03;;;;;;;;;;5034996;28;20041;-69
2022/11/19 03:58:37;;;;;;;18.85;7.25;;;;;;;;;;5033811;28;20360;-71
2022/11/19 04:01:02;;;;;;;12.80;6.25;;;;;;;;;;5034757;28;20018;-68
2022/11/19 04:03:27;;;;;;;19.80;9.02;;;;;;;;;;5035329;28;20065;-67
2022/11/19 04:05:53;;;;;;;20.92;8.63;;;;;;;;;;5034118;28;20021;-67
2022/11/19 04:08:18;;;;;;;24.90;9.95;;;;;;;;;;5034768;28;20131;-68
2022/11/19 04:10:43;;;;;;;21.00;9.88;;;;;;;;;;5035006;28;20031;-71
2022/11/19 04:13:08;;;;;;;16.00;7.63;;;;;;;;;;5034843;28;20029;-68
2022/11/19 04:15:34;;;;;;;16.42;7.82;;;;;;;;;;5035136;28;20045;-68
2022/11/19 04:17:59;;;;;;;16.88;7.85;;;;;;;;;;5034755;28;20096;-70
2022/11/19 04:20:24;;;;;;;15.52;7.65;;;;;;;;;;5026650;28;20029;-71
2022/11/19 04:22:50;;;;;;;16.33;8.20;;;;;;;;;;5031616;28;20490;-70
2022/11/19 04:25:15;;;;;;;15.52;8.30;;;;;;;;;;5034281;28;20024;-70
2022/11/19 04:27:40;;;;;;;15.30;6.97;;;;;;;;;;5033792;28;20487;-69
2022/11/19 04:30:06;;;;;;;16.35;8.55;;;;;;;;;;5034218;28;20032;-74
2022/11/19 04:32:31;;;;;;;19.92;9.73;;;;;;;;;;5034492;28;20065;-68
2022/11/19 04:34:56;;;;;;;35.30;8.95;;;;;;;;;;5034466;28;20100;-72
2022/11/19 04:37:22;;;;;;;17.63;7.40;;;;;;;;;;5033843;28;20108;-69
2022/11/19 04:39:47;;;;;;;26.05;9.25;;;;;;;;;;5034709;28;20288;-68
2022/11/19 04:42:12;;;;;;;19.80;9.27;;;;;;;;;;5031547;28;20037;-68
2022/11/19 04:44:38;;;;;;;23.90;9.15;;;;;;;;;;5032183;28;20124;-69
2022/11/19 04:47:03;;;;;;;28.77;9.18;;;;;;;;;;5033765;28;20030;-71
2022/11/19 04:49:29;;;;;;;26.65;9.43;;;;;;;;;;5036071;28;20021;-70
2022/11/19 04:51:54;;;;;;;17.65;7.70;;;;;;;;;;5031343;28;20053;-71
2022/11/19 04:54:19;;;;;;;19.52;8.50;;;;;;;;;;5031137;28;20069;-67
2022/11/19 04:56:44;;;;;;;19.38;8.77;;;;;;;;;;5030303;28;20063;-69
2022/11/19 04:59:10;;;;;;;21.75;9.55;;;;;;;;;;5030610;28;20017;-67
2022/11/19 05:01:35;;;;;;;27.45;10.40;;;;;;;;;;5031376;28;20036;-67
2022/11/19 05:04:00;;;;;;;20.35;8.05;;;;;;;;;;5031424;28;20018;-70
2022/11/19 05:06:25;;;;;;;18.15;8.95;;;;;;;;;;5030282;28;20026;-69
2022/11/19 05:08:50;;;;;;;20.52;9.52;;;;;;;;;;5024796;28;20026;-68
2022/11/19 05:11:16;;;;;;;20.35;9.68;;;;;;;;;;5028912;28;20100;-68
2022/11/19 05:13:41;;;;;;;19.15;8.05;;;;;;;;;;5030016;28;20462;-68
2022/11/19 05:16:06;;;;;;;17.77;8.05;;;;;;;;;;5030810;28;20025;-69
2022/11/19 05:18:31;;;;;;;23.65;10.02;;;;;;;;;;5030623;28;20029;-68
2022/11/19 05:20:57;;;;;;;17.08;8.13;;;;;;;;;;5030665;28;20629;-67
2022/11/19 05:23:23;;;;;;;23.88;9.23;;;;;;;;;;5030890;28;20061;-71
2022/11/19 05:25:48;;;;;;;17.95;8.32;;;;;;;;;;5030533;28;20467;-69
2022/11/19 05:28:13;;;;;;;18.95;8.32;;;;;;;;;;5029898;28;20029;-68
2022/11/19 05:30:39;;;;;;;21.60;8.55;;;;;;;;;;5030931;28;20400;-69
2022/11/19 05:33:04;;;;;;;16.02;8.68;;;;;;;;;;5030876;28;20025;-68
2022/11/19 05:35:29;;;;;;;17.98;8.38;;;;;;;;;;5030245;28;20052;-67
2022/11/19 05:37:54;;;;;;;21.70;9.20;;;;;;;;;;5029699;28;20029;-68
2022/11/19 05:40:19;;;;;;;24.23;8.43;;;;;;;;;;5030343;28;20013;-67
2022/11/19 05:42:45;;;;;;;15.02;7.65;;;;;;;;;;5024745;28;20032;-70
2022/11/19 05:45:10;;;;;;;22.85;8.27;;;;;;;;;;5029677;28;20109;-70
2022/11/19 05:47:36;;;;;;;19.45;7.90;;;;;;;;;;5030693;28;20021;-68
2022/11/19 05:50:01;;;;;;;12.75;7.18;;;;;;;;;;5030962;28;20061;-69
2022/11/19 05:52:26;;;;;;;21.42;8.95;;;;;;;;;;5030171;28;20060;-66
2022/11/19 05:54:51;;;;;;;24.38;8.95;;;;;;;;;;5029753;28;20021;-71
2022/11/19 05:57:17;;;;;;;18.60;8.80;;;;;;;;;;5029546;28;20387;-67
2022/11/19 05:59:42;;;;;;;25.17;10.13;;;;;;;;;;5029503;28;20109;-70
2022/11/19 06:02:07;;;;;;;25.05;9.05;;;;;;;;;;5029269;28;20045;-70
2022/11/19 06:04:32;;;;;;;21.67;8.90;;;;;;;;;;5029521;28;20045;-68
2022/11/19 06:06:58;;;;;;;20.60;8.38;;;;;;;;;;5029718;28;20051;-69
2022/11/19 06:09:23;;;;;;;24.48;9.20;;;;;;;;;;5030118;28;20053;-71
2022/11/19 06:11:51;;;;;;;18.25;7.93;;;;;;;;;;5030406;28;20128;-71
2022/11/19 06:14:17;;;;;;;18.17;9.00;;;;;;;;;;5029406;28;20024;-71
2022/11/19 06:16:43;;;;;;;17.60;8.07;;;;;;;;;;5030532;28;20026;-70
2022/11/19 06:19:08;;;;;;;21.10;7.25;;;;;;;;;;5042700;28;20044;-71
2022/11/19 06:21:33;;;;;;;20.63;8.40;;;;;;;;;;5046455;28;20144;-70
2022/11/19 06:23:59;;;;;;;20.08;9.43;;;;;;;;;;5044764;28;20024;-73
2022/11/19 06:26:25;;;;;;;23.33;8.43;;;;;;;;;;5032985;28;20014;-68
2022/11/19 06:28:50;;;;;;;20.48;8.35;;;;;;;;;;5030582;28;20024;-69
2022/11/19 06:31:16;;;;;;;17.88;8.43;;;;;;;;;;5030781;28;20025;-69
2022/11/19 06:33:41;;;;;;;23.83;7.80;;;;;;;;;;5029890;28;20120;-71
2022/11/19 06:36:06;;;;;;;18.38;7.82;;;;;;;;;;5030202;28;20101;-68
2022/11/19 06:38:32;;;;;;;14.95;7.40;;;;;;;;;;5029105;28;20396;-70
2022/11/19 06:40:57;;;;;;;14.90;8.13;;;;;;;;;;5031055;28;20578;-66
2022/11/19 06:43:22;;;;;;;19.17;7.50;;;;;;;;;;5026043;28;20062;-71
2022/11/19 06:45:47;;;;;;;18.17;7.20;;;;;;;;;;5029964;28;20152;-70
2022/11/19 06:48:12;;;;;;;17.98;8.48;;;;;;;;;;5027562;28;20021;-68
2022/11/19 06:50:38;;;;;;;17.98;7.88;;;;;;;;;;5029834;28;20022;-71
2022/11/19 06:53:03;;;;;;;24.15;11.88;;;;;;;;;;5028817;28;20056;-67
2022/11/19 06:55:28;;;;;;;32.13;13.18;;;;;;;;;;5028516;28;20095;-72
2022/11/19 06:57:53;;;;;;;22.20;10.57;;;;;;;;;;5028047;28;20061;-67
2022/11/19 07:00:19;;;;;;;21.17;11.48;;;;;;;;;;5030225;28;20474;-69
2022/11/19 07:02:46;;;;;;;26.20;11.68;;;;;;;;;;5029613;28;20017;-69
2022/11/19 07:05:11;;;;;;;22.58;9.70;;;;;;;;;;5029384;28;20025;-70
2022/11/19 07:07:36;;;;;;;28.48;10.93;;;;;;;;;;5028354;28;20105;-72
2022/11/19 07:10:02;;;;;;;26.25;9.20;;;;;;;;;;5027668;28;20025;-69
2022/11/19 07:12:27;;;;;;;23.25;9.40;;;;;;;;;;5029150;28;20028;-70
2022/11/19 07:14:52;;;;;;;19.92;8.93;;;;;;;;;;5028690;28;20399;-70
2022/11/19 07:17:17;;;;;;;20.30;9.75;;;;;;;;;;5028852;28;20060;-69
2022/11/19 07:19:43;;;;;;;14.45;8.02;;;;;;;;;;5029448;28;20129;-66
2022/11/19 07:22:08;;;;;;;17.00;8.63;;;;;;;;;;5029066;28;20025;-71
2022/11/19 07:24:33;;;;;;;14.45;7.03;;;;;;;;;;5028714;28;20455;-70
2022/11/19 07:26:58;;;;;;;18.38;9.13;;;;;;;;;;5028528;28;20017;-70
2022/11/19 07:29:24;;;;;;;22.63;9.88;;;;;;;;;;5027864;28;20033;-70
2022/11/19 07:31:52;;;;;;;26.42;10.75;;;;;;;;;;5028553;28;20029;-68
2022/11/19 07:34:17;;;;;;;26.23;10.65;;;;;;;;;;5027799;28;20029;-67
2022/11/19 07:36:42;;;;;;;16.25;8.43;;;;;;;;;;5026627;28;20022;-68
2022/11/19 07:39:08;;;;;;;28.33;9.80;;;;;;;;;;5028676;28;20021;-69
2022/11/19 07:44:17;;;;;;;21.35;8.77;;;;;;;;;;5026262;28;20052;-66
2022/11/19 07:46:42;;;;;;;18.60;8.70;;;;;;;;;;5027450;28;20057;-71
2022/11/19 07:49:07;;;;;;;16.42;8.70;;;;;;;;;;5028446;28;20025;-70
2022/11/19 07:51:33;;;;;;;21.63;9.77;;;;;;;;;;5028703;28;20116;-70
2022/11/19 07:53:58;;;;;;;19.23;8.93;;;;;;;;;;5033598;28;20119;-71
2022/11/19 07:56:23;;;;;;;19.58;9.00;;;;;;;;;;5027964;28;20104;-71
2022/11/19 07:58:48;;;;;;;18.75;7.68;;;;;;;;;;5027138;28;20052;-69
2022/11/19 08:01:21;;;;;;;19.15;7.03;;;;;;;;;;5023541;28;20036;-67
2022/11/19 08:03:47;;;;;;;17.63;7.40;;;;;;;;;;5026025;28;20014;-68
2022/11/19 08:06:14;;;;;;;18.95;7.88;;;;;;;;;;5028149;28;20041;-68
2022/11/19 08:08:39;;;;;;;19.10;8.35;;;;;;;;;;5028193;28;20025;-72
2022/11/19 08:11:05;;;;;;;20.83;8.35;;;;;;;;;;5028299;28;20033;-69
2022/11/19 08:13:31;;;;;;;19.35;8.25;;;;;;;;;;5025264;28;20435;-68
2022/11/19 08:16:00;;;;;;;24.33;10.18;;;;;;;;;;5028441;28;20084;-68
2022/11/19 08:18:25;;;;;;;19.38;8.52;;;;;;;;;;5027636;28;20581;-67
2022/11/19 08:20:50;;;;;;;23.10;9.00;;;;;;;;;;5023214;28;20033;-70
2022/11/19 08:23:15;;;;;;;23.30;8.90;;;;;;;;;;5027242;28;20033;-68
2022/11/19 08:25:44;;;;;;;27.58;9.38;;;;;;;;;;5027959;28;20037;-70
2022/11/19 08:28:10;;;;;;;25.00;8.83;;;;;;;;;;5027966;28;20029;-68
2022/11/19 08:30:35;;;;;;;13.70;7.45;;;;;;;;;;5025776;28;20116;-70
2022/11/19 08:33:01;;;;;;;16.13;7.57;;;;;;;;;;5026130;28;20035;-70
2022/11/19 08:35:26;;;;;;;20.38;8.30;;;;;;;;;;5029046;28;20180;-68
2022/11/19 08:37:51;;;;;;;20.52;8.35;;;;;;;;;;5029839;28;20021;-70
2022/11/19 08:40:17;;;;;;;19.58;7.70;;;;;;;;;;5029306;28;20473;-68
2022/11/19 08:43:00;;;;;;;20.50;8.95;;;;;;;;;;5025864;28;20018;-70
2022/11/19 08:45:28;;;;;;;17.92;8.45;;;;;;;;;;5025380;28;20025;-69
2022/11/19 08:47:54;;;;;;;14.77;6.82;;;;;;;;;;5031173;28;20013;-70
2022/11/19 08:50:20;;;;;;;23.23;8.43;;;;;;;;;;5031982;28;20029;-69
2022/11/19 08:52:45;;;;;;;18.15;7.60;;;;;;;;;;5030904;28;20104;-71
2022/11/19 08:55:10;;;;;;;14.88;6.80;;;;;;;;;;5031063;28;20017;-68
2022/11/19 08:57:36;;;;;;;22.48;9.35;;;;;;;;;;5030481;28;20013;-68
2022/11/19 09:00:01;;;;;;;20.25;8.50;;;;;;;;;;5028626;28;20469;-68
2022/11/19 09:02:26;;;;;;;23.92;8.45;;;;;;;;;;5025002;28;20047;-69
2022/11/19 09:04:51;;;;;;;17.17;8.20;;;;;;;;;;5031085;28;20387;-70
2022/11/19 09:07:17;;;;;;;19.98;8.63;;;;;;;;;;5031003;28;20497;-68
2022/11/19 09:09:42;;;;;;;18.05;7.57;;;;;;;;;;5024807;28;20382;-69
2022/11/19 09:12:07;;;;;;;15.77;7.22;;;;;;;;;;5031325;28;20064;-69
2022/11/19 09:14:32;;;;;;;27.17;7.95;;;;;;;;;;5025850;28;20498;-69
2022/11/19 09:16:58;;;;;;;19.75;8.82;;;;;;;;;;5024890;28;20029;-70
2022/11/19 09:19:23;;;;;;;16.65;7.82;;;;;;;;;;5031658;28;20040;-68
2022/11/19 09:21:48;;;;;;;21.98;8.95;;;;;;;;;;5030824;28;20018;-72
2022/11/19 09:24:13;;;;;;;23.35;9.65;;;;;;;;;;5027719;28;20017;-70
2022/11/19 09:26:38;;;;;;;21.20;8.25;;;;;;;;;;5030321;28;20368;-71
2022/11/19 09:29:04;;;;;;;19.33;8.40;;;;;;;;;;5030767;28;20340;-70
2022/11/19 09:31:29;;;;;;;19.83;8.60;;;;;;;;;;5029500;28;20060;-71
2022/11/19 09:33:54;;;;;;;23.83;9.48;;;;;;;;;;5030837;28;20501;-67
2022/11/19 09:36:20;;;;;;;19.88;7.90;;;;;;;;;;5030705;28;20053;-70
2022/11/19 09:38:45;;;;;;;18.27;7.63;;;;;;;;;;5030111;28;20471;-70
2022/11/19 09:41:17;;;;;;;20.23;9.35;;;;;;;;;;5029442;28;20518;-68
2022/11/19 09:43:48;;;;;;;17.08;8.23;;;;;;;;;;5029272;28;20503;-68
2022/11/19 09:46:21;;;;;;;18.77;8.80;;;;;;;;;;5030596;28;20109;-68
2022/11/19 09:48:47;;;;;;;19.15;8.48;;;;;;;;;;5030934;28;20025;-68
2022/11/19 09:51:20;;;;;;;21.40;8.65;;;;;;;;;;5029576;28;20029;-69
2022/11/19 09:53:53;;;;;;;16.83;7.50;;;;;;;;;;5028821;28;20136;-71
2022/11/19 09:56:24;;;;;;;18.95;9.00;;;;;;;;;;5029127;28;20597;-67
2022/11/19 09:58:50;;;;;;;17.83;8.23;;;;;;;;;;5027207;28;20040;-70
2022/11/19 10:01:16;;;;;;;17.40;8.02;;;;;;;;;;5031430;28;20025;-71
2022/11/19 10:03:46;;;;;;;23.63;10.10;;;;;;;;;;5032158;28;20032;-71
2022/11/19 10:06:14;;;;;;;23.27;11.40;;;;;;;;;;5030493;28;20022;-69
2022/11/19 10:08:48;;;;;;;23.92;10.10;;;;;;;;;;5029420;28;20033;-68
2022/11/19 10:11:28;;;;;;;24.30;10.00;;;;;;;;;;5030001;28;20029;-69
2022/11/19 10:13:59;;;;;;;19.98;9.20;;;;;;;;;;5026342;28;20098;-70
2022/11/19 10:16:27;;;;;;;26.70;9.95;;;;;;;;;;5030766;28;20041;-70
2022/11/19 10:19:17;;;;;;;19.57;8.30;;;;;;;;;;5028014;28;20021;-68
2022/11/19 10:21:52;;;;;;;17.88;7.22;;;;;;;;;;5026148;28;20013;-70
2022/11/19 10:24:28;;;;;;;18.63;7.68;;;;;;;;;;5029127;28;20017;-70
2022/11/19 10:27:09;;;;;;;15.05;8.57;;;;;;;;;;5028674;28;20022;-70
2022/11/19 10:29:36;;;;;;;26.77;7.85;;;;;;;;;;5022888;28;20037;-70
2022/11/19 10:32:20;;;;;;;17.00;7.75;;;;;;;;;;5023505;28;20096;-70
2022/11/19 10:34:47;;;;;;;13.50;7.22;;;;;;;;;;5028823;28;20037;-67
2022/11/19 10:37:16;;;;;;;18.40;7.45;;;;;;;;;;5029621;28;20036;-69
2022/11/19 10:39:51;;;;;;;15.50;6.90;;;;;;;;;;5025711;28;20028;-70
2022/11/19 10:42:27;;;;;;;18.65;7.85;;;;;;;;;;5023658;28;20029;-70
2022/11/19 10:45:02;;;;;;;18.02;7.93;;;;;;;;;;5021165;28;20079;-69
2022/11/19 10:47:39;;;;;;;16.08;7.82;;;;;;;;;;5020402;28;20106;-71
2022/11/19 10:50:04;;;;;;;19.50;9.10;;;;;;;;;;5024790;22;20061;-67
2022/11/19 10:52:41;;;;;;;17.70;7.97;;;;;;;;;;5004837;28;20022;-66
2022/11/19 10:55:35;;;;;;;27.00;7.28;;;;;;;;;;5008793;28;20026;-67
2022/11/19 10:58:10;;;;;;;20.92;7.63;;;;;;;;;;5001371;28;20353;-66
2022/11/19 11:00:36;;;;;;;14.15;6.93;;;;;;;;;;4992225;28;20018;-67
2022/11/19 11:03:04;;;;;;;21.38;6.80;;;;;;;;;;4993862;28;20046;-67
2022/11/19 11:05:30;;;;;;;18.43;6.47;;;;;;;;;;4997807;28;20030;-64
2022/11/19 11:08:01;;;;;;;17.70;8.00;;;;;;;;;;4990028;28;20400;-67
2022/11/19 11:10:29;;;;;;;15.68;6.57;;;;;;;;;;4991088;28;20591;-65
2022/11/19 11:15:45;;;;;;;14.05;5.78;;;;;;;;;;4991321;28;20029;-65
2022/11/19 11:18:10;;;;;;;17.27;7.10;;;;;;;;;;4986215;28;20381;-66
2022/11/19 11:20:37;;;;;;;15.18;6.00;;;;;;;;;;4987416;28;20044;-67
2022/11/19 11:23:08;;;;;;;15.15;5.93;;;;;;;;;;4986259;28;20022;-66
2022/11/19 11:25:33;;;;;;;15.85;5.82;;;;;;;;;;4986857;28;20577;-66
2022/11/19 11:28:03;;;;;;;12.85;6.78;;;;;;;;;;4987291;28;20092;-67
2022/11/19 11:30:28;;;;;;;15.82;6.38;;;;;;;;;;4990559;28;20041;-67
2022/11/19 11:32:53;;;;;;;16.27;7.00;;;;;;;;;;4987484;28;20018;-66
2022/11/19 11:35:28;;;;;;;19.23;7.38;;;;;;;;;;4984245;28;20029;-66
2022/11/19 11:37:53;;;;;;;16.75;6.88;;;;;;;;;;4987185;28;20259;-65
2022/11/19 11:40:20;;;;;;;14.65;7.00;;;;;;;;;;4992290;28;20718;-67
2022/11/19 11:42:46;;;;;;;16.88;7.10;;;;;;;;;;4990555;28;20530;-66
2022/11/19 11:45:19;;;;;;;12.88;6.72;;;;;;;;;;4993253;28;20653;-67
2022/11/19 11:47:45;;;;;;;17.15;7.38;;;;;;;;;;4989252;28;20030;-66
2022/11/19 11:50:22;;;;;;;14.15;7.35;;;;;;;;;;4994001;28;20063;-67
2022/11/19 11:52:50;;;;;;;16.83;7.70;;;;;;;;;;4990457;28;20037;-66
2022/11/19 11:55:15;;;;;;;15.88;7.40;;;;;;;;;;4986329;28;20058;-64
2022/11/19 11:58:00;;;;;;;22.38;6.78;;;;;;;;;;4992294;28;20269;-67
2022/11/19 12:00:31;;;;;;;21.45;8.10;;;;;;;;;;4989892;28;20034;-64
2022/11/19 12:02:59;;;;;;;18.40;7.25;;;;;;;;;;4992491;28;20026;-65
2022/11/19 12:05:25;;;;;;;15.55;7.72;;;;;;;;;;4992738;28;20117;-65
2022/11/19 12:07:53;;;;;;;14.32;6.65;;;;;;;;;;4994283;28;20987;-66
2022/11/19 12:10:28;;;;;;;15.68;7.00;;;;;;;;;;4996389;28;20543;-65
2022/11/19 12:12:53;;;;;;;12.68;5.70;;;;;;;;;;4993751;28;20034;-66
2022/11/19 12:15:23;;;;;;;19.08;6.43;;;;;;;;;;4991452;28;20033;-65
2022/11/19 12:18:08;;;;;;;11.52;5.65;;;;;;;;;;4996646;28;20050;-66
2022/11/19 12:20:59;;;;;;;15.40;6.55;;;;;;;;;;4989960;28;20030;-66
2022/11/19 12:23:24;;;;;;;15.13;7.15;;;;;;;;;;4983006;28;21498;-68
2022/11/19 12:25:49;;;;;;;13.93;6.28;;;;;;;;;;4990501;28;20030;-66
2022/11/19 12:28:38;;;;;;;14.13;6.20;;;;;;;;;;4991347;28;20030;-65
2022/11/19 12:31:22;;;;;;;17.45;6.97;;;;;;;;;;4992082;28;20180;-66
2022/11/19 12:33:50;;;;;;;14.25;6.47;;;;;;;;;;4990991;28;20030;-65
2022/11/19 12:36:15;;;;;;;14.40;7.28;;;;;;;;;;4992076;28;20014;-66
2022/11/19 12:38:49;;;;;;;14.27;6.97;;;;;;;;;;4997006;28;20065;-68
2022/11/19 12:41:33;;;;;;;15.32;7.43;;;;;;;;;;4990566;28;20033;-66
2022/11/19 12:44:02;;;;;;;15.45;6.85;;;;;;;;;;4992349;28;20019;-67
2022/11/19 12:46:34;;;;;;;15.13;7.32;;;;;;;;;;4995337;28;20030;-64
2022/11/19 12:48:59;;;;;;;13.43;5.97;;;;;;;;;;4991080;28;20102;-66
2022/11/19 12:51:24;;;;;;;17.63;6.82;;;;;;;;;;4990834;28;20113;-68
2022/11/19 12:54:01;;;;;;;20.52;7.70;;;;;;;;;;4991229;28;20042;-65
2022/11/19 12:56:33;;;;;;;17.25;7.53;;;;;;;;;;4988279;28;20056;-64
2022/11/19 12:59:01;;;;;;;15.43;6.45;;;;;;;;;;4988677;28;20032;-65
2022/11/19 13:01:30;;;;;;;17.35;6.15;;;;;;;;;;4990070;28;20027;-67
2022/11/19 13:03:55;;;;;;;;;;;;;;;;;;4993099;28;20026;-67
2022/11/19 13:06:23;;;;;;;12.02;6.25;;;;;;;;;;4996105;28;20405;-66
2022/11/19 13:08:53;;;;;;;17.93;6.87;;;;;;;;;;4991375;28;20268;-63
2022/11/19 13:11:21;;;;;;;14.98;5.65;;;;;;;;;;4993805;28;20088;-67
2022/11/19 13:13:49;;;;;;;14.35;7.03;;;;;;;;;;4996311;28;20018;-66
2022/11/19 13:16:15;;;;;;;12.48;6.63;;;;;;;;;;4990331;28;20110;-66
2022/11/19 13:18:43;;;;;;;22.13;6.70;;;;;;;;;;4995194;28;20494;-65
2022/11/19 13:21:15;;;;;;;13.88;6.65;;;;;;;;;;4991469;28;20623;-69
2022/11/19 13:23:42;;;;;;;12.93;6.40;;;;;;;;;;4991093;28;20014;-66
2022/11/19 13:26:18;;;;;;;13.50;6.63;;;;;;;;;;4993269;28;20053;-67
2022/11/19 13:28:48;;;;;;;21.40;6.10;;;;;;;;;;4991708;28;20030;-66
2022/11/19 13:31:13;;;;;;;;;;;;;;;;;;4992454;28;20042;-67
2022/11/19 13:33:48;;;;;;;12.63;5.43;;;;;;;;;;4990070;28;19921;-66
2022/11/19 13:36:13;;;;;;;18.02;6.68;;;;;;;;;;4992256;28;21174;-66
2022/11/19 13:38:45;;;;;;;14.57;6.22;;;;;;;;;;4990000;28;20045;-67
2022/11/19 13:41:31;;;;;;;16.70;6.80;;;;;;;;;;4989236;28;20030;-66
2022/11/19 13:46:40;;;;;;;14.80;5.97;;;;;;;;;;4981407;28;20157;-65
2022/11/19 13:49:14;;;;;;;14.00;6.88;;;;;;;;;;4977366;28;20498;-67
2022/11/19 13:51:50;;;;;;;14.75;6.40;;;;;;;;;;4981054;28;20133;-67
2022/11/19 13:54:24;;;;;;;16.73;7.55;;;;;;;;;;4989065;28;20065;-67
2022/11/19 13:56:50;;;;;;;15.05;6.70;;;;;;;;;;4982396;28;20046;-66
2022/11/19 13:59:21;;;;;;;13.43;6.85;;;;;;;;;;4978099;28;20097;-65
2022/11/19 14:01:54;;;;;;;17.35;6.95;;;;;;;;;;4977270;28;20015;-65
2022/11/19 14:04:19;;;;;;;18.08;6.72;;;;;;;;;;4983203;28;20046;-67
2022/11/19 14:06:51;;;;;;;13.52;6.53;;;;;;;;;;4983093;28;20044;-68
2022/11/19 14:09:27;;;;;;;12.60;5.53;;;;;;;;;;4976817;28;20026;-66
2022/11/19 14:12:11;;;;;;;14.77;5.85;;;;;;;;;;4978910;28;20034;-68
2022/11/19 14:26:40;;;;;;;10.45;4.72;;;;;;;;;;4988382;28;20447;-66
2022/11/19 14:29:25;;;;;;;10.25;5.03;;;;;;;;;;4988558;28;20026;-66
2022/11/19 14:32:11;;;;;;;10.32;5.15;;;;;;;;;;4988626;28;20125;-64
2022/11/19 14:34:39;;;;;;;10.93;5.00;;;;;;;;;;4974487;28;20377;-65
2022/11/19 14:37:23;;;;;;;12.43;5.50;;;;;;;;;;4977594;28;20061;-67
2022/11/19 14:40:00;;;;;;;10.80;4.85;;;;;;;;;;4995675;28;20129;-67
2022/11/19 14:42:25;;;;;;;9.93;4.35;;;;;;;;;;4989122;28;20018;-68
2022/11/19 14:44:59;;;;;;;15.98;4.85;;;;;;;;;;4989559;28;20025;-66
2022/11/19 14:47:25;;;;;;;9.05;5.03;;;;;;;;;;4988569;28;20483;-66
2022/11/19 14:49:52;;;;;;;11.93;4.72;;;;;;;;;;4987544;28;20054;-66
2022/11/19 14:52:18;;;;;;;8.75;4.82;;;;;;;;;;4987750;28;20526;-66
2022/11/19 14:54:43;;;;;;;11.45;5.10;;;;;;;;;;4988824;28;20045;-67
2022/11/19 14:57:27;;;;;;;9.32;4.43;;;;;;;;;;4988847;28;20030;-67
2022/11/19 14:59:55;;;;;;;14.55;6.55;;;;;;;;;;4982357;28;20082;-69
2022/11/19 15:02:25;;;;;;;10.63;4.70;;;;;;;;;;4989164;28;20049;-65
2022/11/19 15:05:11;;;;;;;12.27;5.55;;;;;;;;;;4994291;28;20084;-66
2022/11/19 15:07:38;;;;;;;11.52;5.65;;;;;;;;;;4956912;28;20037;-68